Time;durP1;ratioP1;P1;durP2;ratioP2;P2;SDS_P1;SDS_P2;PMS_P1;PMS_P2;Temp;Humidity;BMP_temperature;BMP_pressure;BME280_temperature;BME280_humidity;BME280_pressure;Samples;Min_cycle;Max_cycle;Signal;HPM_P1;HPM_P2
2023/05/25 00:02:05;;;;;;;5.78;5.45;;;;;;;;;;4248796;28;20235;-58
2023/05/25 00:04:29;;;;;;;6.18;5.88;;;;;;;;;;4244301;28;20050;-58
2023/05/25 00:06:49;;;;;;;5.90;5.07;;;;;;;;;;4244956;28;20085;-58
2023/05/25 00:09:09;;;;;;;5.45;5.05;;;;;;;;;;4244754;28;20080;-58
2023/05/25 00:11:30;;;;;;;7.53;4.95;;;;;;;;;;4243406;28;20051;-58
2023/05/25 00:13:51;;;;;;;5.63;5.32;;;;;;;;;;4242660;28;20365;-58
2023/05/25 00:16:11;;;;;;;4.97;4.75;;;;;;;;;;4242336;28;20076;-58
2023/05/25 00:18:32;;;;;;;6.50;6.00;;;;;;;;;;4241008;28;20076;-58
2023/05/25 00:20:57;;;;;;;9.23;6.75;;;;;;;;;;4242014;28;20090;-58
2023/05/25 00:23:17;;;;;;;142.85;10.93;;;;;;;;;;4240299;28;20039;-58
2023/05/25 00:25:37;;;;;;;139.25;8.63;;;;;;;;;;4240076;28;20046;-58
2023/05/25 00:27:57;;;;;;;53.03;6.15;;;;;;;;;;4242338;28;20050;-58
2023/05/25 00:30:17;;;;;;;43.95;7.57;;;;;;;;;;4239976;28;20111;-58
2023/05/25 00:32:38;;;;;;;15.45;7.82;;;;;;;;;;4240145;28;20093;-58
2023/05/25 00:34:58;;;;;;;35.45;7.82;;;;;;;;;;4239012;28;20046;-58
2023/05/25 00:37:18;;;;;;;7.40;7.20;;;;;;;;;;4240460;28;20050;-58
2023/05/25 00:39:38;;;;;;;7.57;7.15;;;;;;;;;;4242916;28;20050;-58
2023/05/25 00:41:59;;;;;;;7.85;7.60;;;;;;;;;;4238236;28;20051;-58
2023/05/25 00:44:20;;;;;;;8.52;7.80;;;;;;;;;;4240169;28;20087;-58
2023/05/25 00:46:51;;;;;;;9.02;7.90;;;;;;;;;;4243460;28;20082;-58
2023/05/25 00:49:13;;;;;;;7.43;7.13;;;;;;;;;;4243351;28;20085;-58
2023/05/25 00:51:35;;;;;;;7.13;6.93;;;;;;;;;;4239249;28;20054;-58
2023/05/25 00:53:55;;;;;;;7.43;7.13;;;;;;;;;;4239638;28;20049;-59
2023/05/25 00:56:19;;;;;;;7.43;6.88;;;;;;;;;;4238369;28;20141;-58
2023/05/25 00:58:40;;;;;;;7.00;6.55;;;;;;;;;;4241041;28;20219;-58
2023/05/25 01:01:02;;;;;;;6.65;6.25;;;;;;;;;;4243535;28;20054;-58
2023/05/25 01:03:26;;;;;;;5.28;4.93;;;;;;;;;;4239283;28;20081;-58
2023/05/25 01:05:48;;;;;;;6.72;5.05;;;;;;;;;;4241813;28;20047;-58
2023/05/25 01:08:11;;;;;;;13.40;7.03;;;;;;;;;;4244227;28;20085;-58
2023/05/25 01:10:32;;;;;;;7.60;5.95;;;;;;;;;;4239413;28;20054;-58
2023/05/25 01:12:53;;;;;;;5.43;5.03;;;;;;;;;;4237144;28;20043;-58
2023/05/25 01:15:13;;;;;;;5.72;5.43;;;;;;;;;;4243549;28;20051;-58
2023/05/25 01:17:36;;;;;;;5.55;5.38;;;;;;;;;;4242755;28;20073;-58
2023/05/25 01:19:57;;;;;;;4.88;4.57;;;;;;;;;;4233729;28;20432;-58
2023/05/25 01:22:53;;;;;;;4.75;4.55;;;;;;;;;;4244690;28;20109;-58
2023/05/25 01:25:20;;;;;;;5.80;5.60;;;;;;;;;;4242945;28;20103;-58
2023/05/25 01:27:44;;;;;;;12.02;6.00;;;;;;;;;;4239374;28;20373;-58
2023/05/25 01:30:10;;;;;;;5.43;5.13;;;;;;;;;;4237143;28;20116;-58
2023/05/25 01:32:31;;;;;;;6.00;5.80;;;;;;;;;;4243985;28;20062;-58
2023/05/25 01:34:52;;;;;;;5.55;5.35;;;;;;;;;;4249095;28;20050;-58
2023/05/25 01:37:13;;;;;;;10.65;5.93;;;;;;;;;;4247551;28;20050;-58
2023/05/25 01:39:33;;;;;;;7.25;6.45;;;;;;;;;;4240992;28;20158;-58
2023/05/25 01:41:53;;;;;;;6.65;5.68;;;;;;;;;;4247348;28;20058;-58
2023/05/25 01:44:13;;;;;;;5.30;5.03;;;;;;;;;;4244338;28;20050;-58
2023/05/25 01:46:36;;;;;;;5.57;5.20;;;;;;;;;;4242803;28;20085;-58
2023/05/25 01:49:17;;;;;;;6.50;5.90;;;;;;;;;;4245354;28;20366;-58
2023/05/25 01:51:40;;;;;;;5.38;5.28;;;;;;;;;;4240840;28;20050;-59
2023/05/25 01:54:04;;;;;;;5.55;5.13;;;;;;;;;;4239813;28;20062;-58
2023/05/25 01:56:25;;;;;;;7.80;6.32;;;;;;;;;;4242873;28;20051;-59
2023/05/25 01:58:46;;;;;;;5.50;5.20;;;;;;;;;;4243847;28;20046;-58
2023/05/25 02:01:08;;;;;;;6.05;5.80;;;;;;;;;;4238241;28;20070;-59
2023/05/25 02:03:28;;;;;;;5.93;5.68;;;;;;;;;;4237654;28;20088;-59
2023/05/25 02:05:49;;;;;;;6.13;5.93;;;;;;;;;;4240550;28;20073;-58
2023/05/25 02:08:09;;;;;;;14.00;6.45;;;;;;;;;;4240591;28;20120;-58
2023/05/25 02:10:30;;;;;;;8.63;5.90;;;;;;;;;;4232240;28;20051;-58
2023/05/25 02:12:50;;;;;;;42.33;6.72;;;;;;;;;;4235581;28;20131;-58
2023/05/25 02:15:11;;;;;;;5.60;5.43;;;;;;;;;;4235012;28;20366;-58
2023/05/25 02:17:31;;;;;;;6.32;6.13;;;;;;;;;;4240774;28;20258;-58
2023/05/25 02:19:53;;;;;;;5.88;5.15;;;;;;;;;;4237372;28;20073;-59
2023/05/25 02:22:13;;;;;;;6.40;6.15;;;;;;;;;;4240908;27;20085;-58
2023/05/25 02:24:33;;;;;;;6.18;5.93;;;;;;;;;;4241660;28;20039;-58
2023/05/25 02:26:54;;;;;;;5.88;5.03;;;;;;;;;;4237347;28;20391;-58
2023/05/25 02:29:14;;;;;;;7.22;6.32;;;;;;;;;;4240071;28;20050;-58
2023/05/25 02:31:34;;;;;;;5.60;5.30;;;;;;;;;;4237496;28;20050;-58
2023/05/25 02:33:55;;;;;;;6.80;5.18;;;;;;;;;;4237518;28;20038;-58
2023/05/25 02:36:15;;;;;;;22.98;5.78;;;;;;;;;;4237631;28;20097;-59
2023/05/25 02:38:36;;;;;;;85.28;7.38;;;;;;;;;;4237006;28;20332;-58
2023/05/25 02:40:56;;;;;;;433.75;23.63;;;;;;;;;;4234550;28;20043;-58
2023/05/25 02:43:16;;;;;;;451.90;22.15;;;;;;;;;;4235572;28;20412;-58
2023/05/25 02:45:36;;;;;;;5.28;4.40;;;;;;;;;;4237845;28;20050;-58
2023/05/25 02:47:56;;;;;;;95.78;8.15;;;;;;;;;;4234075;28;20058;-58
2023/05/25 02:50:16;;;;;;;95.13;9.30;;;;;;;;;;4234389;28;20051;-58
2023/05/25 02:52:37;;;;;;;61.30;7.07;;;;;;;;;;4239935;28;20046;-58
2023/05/25 02:54:57;;;;;;;95.57;7.90;;;;;;;;;;4241658;28;20042;-58
2023/05/25 02:57:17;;;;;;;5.45;5.20;;;;;;;;;;4236301;28;20051;-58
2023/05/25 02:59:37;;;;;;;69.78;6.93;;;;;;;;;;4233184;28;20389;-58
2023/05/25 03:01:58;;;;;;;73.22;6.43;;;;;;;;;;4242564;28;20264;-58
2023/05/25 03:04:19;;;;;;;67.78;7.72;;;;;;;;;;4247510;28;20047;-58
2023/05/25 03:06:39;;;;;;;5.60;5.28;;;;;;;;;;4247792;28;20400;-58
2023/05/25 03:09:00;;;;;;;40.85;5.88;;;;;;;;;;4244731;28;20046;-59
2023/05/25 03:11:21;;;;;;;99.88;8.10;;;;;;;;;;4245441;28;20046;-58
2023/05/25 03:13:41;;;;;;;8.15;5.35;;;;;;;;;;4243663;28;20144;-58
2023/05/25 03:16:01;;;;;;;193.68;10.98;;;;;;;;;;4243603;28;20080;-58
2023/05/25 03:18:22;;;;;;;81.90;6.82;;;;;;;;;;4248029;28;20084;-58
2023/05/25 03:20:42;;;;;;;15.57;5.07;;;;;;;;;;4240217;28;20055;-58
2023/05/25 03:23:02;;;;;;;5.22;4.85;;;;;;;;;;4237045;28;20292;-59
2023/05/25 03:25:23;;;;;;;18.63;6.53;;;;;;;;;;4241070;28;20062;-58
2023/05/25 03:27:43;;;;;;;11.27;5.40;;;;;;;;;;4245139;28;20046;-58
2023/05/25 03:30:04;;;;;;;16.50;6.22;;;;;;;;;;4236882;28;20070;-58
2023/05/25 03:32:24;;;;;;;5.20;5.00;;;;;;;;;;4233780;28;20050;-58
2023/05/25 03:34:44;;;;;;;5.53;5.22;;;;;;;;;;4245933;28;20071;-59
2023/05/25 03:37:05;;;;;;;98.97;8.20;;;;;;;;;;4246451;28;20054;-58
2023/05/25 03:39:25;;;;;;;6.32;6.22;;;;;;;;;;4237433;28;20231;-58
2023/05/25 03:41:45;;;;;;;27.17;6.10;;;;;;;;;;4237985;28;20047;-58
2023/05/25 03:44:05;;;;;;;42.63;6.88;;;;;;;;;;4242676;28;20084;-58
2023/05/25 03:46:25;;;;;;;71.30;8.25;;;;;;;;;;4243421;28;20140;-61
2023/05/25 03:48:45;;;;;;;71.97;7.15;;;;;;;;;;4239496;28;20239;-61
2023/05/25 03:51:06;;;;;;;5.30;4.93;;;;;;;;;;4242275;28;20042;-61
2023/05/25 03:53:26;;;;;;;90.50;7.82;;;;;;;;;;4244476;28;20042;-61
2023/05/25 03:55:46;;;;;;;109.60;9.07;;;;;;;;;;4241998;28;20038;-61
2023/05/25 03:58:08;;;;;;;47.40;7.00;;;;;;;;;;4233913;28;20370;-61
2023/05/25 04:00:29;;;;;;;63.92;6.75;;;;;;;;;;4243685;28;20227;-61
2023/05/25 04:02:49;;;;;;;53.38;6.20;;;;;;;;;;4241017;28;20349;-60
2023/05/25 04:05:09;;;;;;;55.13;5.82;;;;;;;;;;4242049;28;20046;-60
2023/05/25 04:07:30;;;;;;;38.08;6.15;;;;;;;;;;4243048;28;20358;-60
2023/05/25 04:09:50;;;;;;;37.17;6.18;;;;;;;;;;4240903;28;20046;-61
2023/05/25 04:12:10;;;;;;;14.07;5.22;;;;;;;;;;4240484;28;20043;-61
2023/05/25 04:14:30;;;;;;;40.65;5.72;;;;;;;;;;4238312;28;20054;-60
2023/05/25 04:16:52;;;;;;;71.63;7.55;;;;;;;;;;4242394;28;20152;-61
2023/05/25 04:19:12;;;;;;;23.23;4.57;;;;;;;;;;4239496;28;20332;-60
2023/05/25 04:21:32;;;;;;;30.77;4.72;;;;;;;;;;4245176;28;20054;-61
2023/05/25 04:23:52;;;;;;;7.35;4.15;;;;;;;;;;4242585;28;20055;-58
2023/05/25 04:26:14;;;;;;;18.38;5.63;;;;;;;;;;4231579;28;20392;-58
2023/05/25 04:28:34;;;;;;;17.02;4.63;;;;;;;;;;4239863;28;20393;-59
2023/05/25 04:30:55;;;;;;;63.67;6.50;;;;;;;;;;4240052;28;20050;-58
2023/05/25 04:33:16;;;;;;;52.30;6.00;;;;;;;;;;4243055;28;20050;-58
2023/05/25 04:35:37;;;;;;;23.75;5.22;;;;;;;;;;4242444;28;20047;-58
2023/05/25 04:38:01;;;;;;;26.98;5.82;;;;;;;;;;4243695;28;20046;-58
2023/05/25 04:40:21;;;;;;;67.97;6.78;;;;;;;;;;4243988;28;20088;-59
2023/05/25 04:42:41;;;;;;;73.07;7.75;;;;;;;;;;4241425;28;20042;-58
2023/05/25 04:45:01;;;;;;;17.38;5.43;;;;;;;;;;4243096;28;20107;-58
2023/05/25 04:47:23;;;;;;;12.70;4.68;;;;;;;;;;4239024;28;20354;-58
2023/05/25 04:49:44;;;;;;;33.30;5.03;;;;;;;;;;4243810;28;20043;-58
2023/05/25 04:52:05;;;;;;;17.98;5.28;;;;;;;;;;4240408;28;20284;-58
2023/05/25 04:54:25;;;;;;;10.20;4.60;;;;;;;;;;4241874;28;20050;-58
2023/05/25 04:56:46;;;;;;;14.82;4.80;;;;;;;;;;4239149;28;20054;-58
2023/05/25 04:59:06;;;;;;;35.03;5.25;;;;;;;;;;4241689;28;20233;-58
2023/05/25 05:01:27;;;;;;;29.20;6.25;;;;;;;;;;4250725;28;20076;-58
2023/05/25 05:03:48;;;;;;;5.68;5.50;;;;;;;;;;4238016;28;20413;-58
2023/05/25 05:06:09;;;;;;;77.32;7.15;;;;;;;;;;4243076;28;20046;-58
2023/05/25 05:08:29;;;;;;;42.42;5.75;;;;;;;;;;4242485;28;20045;-58
2023/05/25 05:10:49;;;;;;;40.10;5.30;;;;;;;;;;4246214;28;20076;-58
2023/05/25 05:13:10;;;;;;;19.25;5.15;;;;;;;;;;4236228;28;20055;-59
2023/05/25 05:15:30;;;;;;;19.88;5.80;;;;;;;;;;4245157;28;20091;-59
2023/05/25 05:17:51;;;;;;;34.80;6.60;;;;;;;;;;4242305;28;20090;-58
2023/05/25 05:20:11;;;;;;;9.07;4.55;;;;;;;;;;4241521;28;20088;-58
2023/05/25 05:22:32;;;;;;;66.88;6.75;;;;;;;;;;4235964;28;20089;-59
2023/05/25 05:24:52;;;;;;;4.53;4.28;;;;;;;;;;4244308;28;20046;-59
2023/05/25 05:27:13;;;;;;;22.42;4.68;;;;;;;;;;4244388;28;20053;-59
2023/05/25 05:29:36;;;;;;;4.72;4.45;;;;;;;;;;4239048;28;20274;-59
2023/05/25 05:31:56;;;;;;;183.13;10.53;;;;;;;;;;4234769;28;20050;-59
2023/05/25 05:34:16;;;;;;;298.00;17.70;;;;;;;;;;4241315;28;20366;-59
2023/05/25 05:36:37;;;;;;;181.10;11.88;;;;;;;;;;4239984;28;20063;-59
2023/05/25 05:39:15;;;;;;;224.45;14.38;;;;;;;;;;4237967;28;20070;-59
2023/05/25 05:41:35;;;;;;;4.97;4.70;;;;;;;;;;4242581;28;20144;-59
2023/05/25 05:43:56;;;;;;;36.35;6.55;;;;;;;;;;4240555;28;20061;-59
2023/05/25 05:46:16;;;;;;;10.20;4.70;;;;;;;;;;4240485;28;20092;-59
2023/05/25 05:48:37;;;;;;;11.38;4.28;;;;;;;;;;4243488;28;20150;-59
2023/05/25 05:50:57;;;;;;;49.03;6.15;;;;;;;;;;4240522;28;20079;-59
2023/05/25 05:53:17;;;;;;;63.15;6.68;;;;;;;;;;4238743;28;20133;-58
2023/05/25 05:55:37;;;;;;;21.58;4.93;;;;;;;;;;4240095;28;20107;-59
2023/05/25 05:57:58;;;;;;;77.43;7.05;;;;;;;;;;4240708;28;20381;-59
2023/05/25 06:00:18;;;;;;;13.07;5.03;;;;;;;;;;4237645;28;20227;-59
2023/05/25 06:02:38;;;;;;;62.85;7.05;;;;;;;;;;4237999;28;20054;-59
2023/05/25 06:05:01;;;;;;;81.97;8.02;;;;;;;;;;4241675;28;20058;-59
2023/05/25 06:07:21;;;;;;;246.43;12.90;;;;;;;;;;4240799;28;20045;-59
2023/05/25 06:09:41;;;;;;;96.63;7.75;;;;;;;;;;4245516;28;20401;-59
2023/05/25 06:12:02;;;;;;;39.40;5.50;;;;;;;;;;4242124;28;20054;-59
2023/05/25 06:14:22;;;;;;;22.90;5.18;;;;;;;;;;4245552;28;20041;-59
2023/05/25 06:16:42;;;;;;;17.65;5.60;;;;;;;;;;4244077;28;20357;-59
2023/05/25 06:19:03;;;;;;;35.33;7.00;;;;;;;;;;4241811;28;20041;-59
2023/05/25 06:21:23;;;;;;;4.55;4.45;;;;;;;;;;4244888;28;20096;-58
2023/05/25 06:23:43;;;;;;;13.30;5.07;;;;;;;;;;4238134;28;20100;-59
2023/05/25 06:26:04;;;;;;;33.25;5.88;;;;;;;;;;4238344;28;20100;-59
2023/05/25 06:28:25;;;;;;;6.47;5.75;;;;;;;;;;4245254;28;20069;-59
2023/05/25 06:30:45;;;;;;;4.43;4.15;;;;;;;;;;4241837;28;20095;-59
2023/05/25 06:33:05;;;;;;;4.93;4.82;;;;;;;;;;4235505;28;20050;-59
2023/05/25 06:35:25;;;;;;;4.75;4.65;;;;;;;;;;4237611;28;20268;-59
2023/05/25 06:37:47;;;;;;;5.95;5.57;;;;;;;;;;4240437;28;20406;-58
2023/05/25 06:40:09;;;;;;;6.05;5.85;;;;;;;;;;4236299;27;20034;-58
2023/05/25 06:42:29;;;;;;;6.20;6.03;;;;;;;;;;4230956;28;20083;-58
2023/05/25 06:44:49;;;;;;;4.53;4.28;;;;;;;;;;4233093;28;20320;-58
2023/05/25 06:47:09;;;;;;;5.28;4.88;;;;;;;;;;4235227;28;20381;-58
2023/05/25 06:49:30;;;;;;;4.32;4.07;;;;;;;;;;4231775;28;20058;-58
2023/05/25 06:51:50;;;;;;;4.80;4.70;;;;;;;;;;4226646;28;20047;-58
2023/05/25 06:54:13;;;;;;;4.50;4.03;;;;;;;;;;4236298;28;20104;-58
2023/05/25 06:56:35;;;;;;;4.47;4.38;;;;;;;;;;4238021;28;20086;-58
2023/05/25 06:58:55;;;;;;;4.07;3.97;;;;;;;;;;4235760;28;20272;-58
2023/05/25 07:01:15;;;;;;;4.00;3.75;;;;;;;;;;4235486;28;20377;-58
2023/05/25 07:03:37;;;;;;;4.15;4.00;;;;;;;;;;4238790;28;20051;-58
2023/05/25 07:05:57;;;;;;;3.85;3.22;;;;;;;;;;4234472;28;20047;-58
2023/05/25 07:08:18;;;;;;;4.57;3.97;;;;;;;;;;4244401;27;20047;-58
2023/05/25 07:10:38;;;;;;;3.60;3.50;;;;;;;;;;4244062;28;20070;-58
2023/05/25 07:12:58;;;;;;;3.22;3.13;;;;;;;;;;4246787;28;20085;-58
2023/05/25 07:15:20;;;;;;;3.00;2.90;;;;;;;;;;4247289;28;20100;-58
2023/05/25 07:17:40;;;;;;;3.90;3.80;;;;;;;;;;4246060;28;20111;-58
2023/05/25 07:20:00;;;;;;;3.30;3.08;;;;;;;;;;4240538;28;20051;-58
2023/05/25 07:22:22;;;;;;;3.53;3.42;;;;;;;;;;4241891;28;20093;-58
2023/05/25 07:24:42;;;;;;;4.28;4.15;;;;;;;;;;4243672;28;20046;-58
2023/05/25 07:27:03;;;;;;;7.43;3.38;;;;;;;;;;4241982;28;20051;-58
2023/05/25 07:29:23;;;;;;;3.85;3.63;;;;;;;;;;4241585;28;20394;-58
2023/05/25 07:31:43;;;;;;;2.78;2.67;;;;;;;;;;4237813;28;20373;-58
2023/05/25 07:34:03;;;;;;;3.95;2.92;;;;;;;;;;4242886;28;20084;-58
2023/05/25 07:36:23;;;;;;;4.05;2.88;;;;;;;;;;4239649;27;20127;-58
2023/05/25 07:38:44;;;;;;;2.97;2.88;;;;;;;;;;4241174;28;20042;-58
2023/05/25 07:41:04;;;;;;;2.55;2.45;;;;;;;;;;4245124;28;20046;-58
2023/05/25 07:43:24;;;;;;;2.30;2.28;;;;;;;;;;4245277;28;20366;-57
2023/05/25 07:45:44;;;;;;;3.05;3.00;;;;;;;;;;4244468;28;20073;-58
2023/05/25 07:48:06;;;;;;;3.17;2.42;;;;;;;;;;4244428;28;20050;-57
2023/05/25 07:50:26;;;;;;;2.70;2.50;;;;;;;;;;4242564;28;20357;-58
2023/05/25 07:52:46;;;;;;;2.90;2.65;;;;;;;;;;4240779;28;20058;-58
2023/05/25 07:55:07;;;;;;;3.38;2.70;;;;;;;;;;4240448;28;20035;-58
2023/05/25 07:57:28;;;;;;;3.10;3.00;;;;;;;;;;4243992;28;20065;-58
2023/05/25 07:59:48;;;;;;;2.90;2.70;;;;;;;;;;4249152;28;20058;-58
2023/05/25 08:02:09;;;;;;;12.27;4.22;;;;;;;;;;4236848;28;20086;-58
2023/05/25 08:04:30;;;;;;;2.67;2.58;;;;;;;;;;4240448;28;20080;-58
2023/05/25 08:06:50;;;;;;;2.88;2.72;;;;;;;;;;4246065;28;20097;-58
2023/05/25 08:09:12;;;;;;;3.40;3.20;;;;;;;;;;4245798;28;20055;-57
2023/05/25 08:11:32;;;;;;;3.75;2.25;;;;;;;;;;4234288;28;20058;-57
2023/05/25 08:13:53;;;;;;;3.88;3.20;;;;;;;;;;4243690;28;20042;-58
2023/05/25 08:16:13;;;;;;;8.50;2.05;;;;;;;;;;4246946;28;20054;-57
2023/05/25 08:18:34;;;;;;;2.30;2.10;;;;;;;;;;4242459;28;20366;-58
2023/05/25 08:20:54;;;;;;;2.97;2.88;;;;;;;;;;4244995;28;20090;-57
2023/05/25 08:23:14;;;;;;;2.58;2.47;;;;;;;;;;4248740;28;20053;-58
2023/05/25 08:25:35;;;;;;;1.85;1.80;;;;;;;;;;4244131;28;20069;-58
2023/05/25 08:27:55;;;;;;;2.25;1.80;;;;;;;;;;4240218;28;20066;-58
2023/05/25 08:30:15;;;;;;;2.83;1.65;;;;;;;;;;4243758;28;20050;-58
2023/05/25 08:32:36;;;;;;;2.85;1.85;;;;;;;;;;4241021;28;20080;-58
2023/05/25 08:34:56;;;;;;;2.42;2.33;;;;;;;;;;4246750;28;20034;-58
2023/05/25 08:37:18;;;;;;;1.95;1.60;;;;;;;;;;4246868;28;20055;-58
2023/05/25 08:39:38;;;;;;;6.22;2.05;;;;;;;;;;4239469;28;20107;-58
2023/05/25 08:41:59;;;;;;;2.08;1.98;;;;;;;;;;4243231;28;20043;-58
2023/05/25 08:44:20;;;;;;;2.75;1.52;;;;;;;;;;4243720;28;20079;-58
2023/05/25 08:46:41;;;;;;;2.55;1.75;;;;;;;;;;4242337;28;20395;-58
2023/05/25 08:49:08;;;;;;;3.53;1.98;;;;;;;;;;4239741;28;20276;-58
2023/05/25 08:51:31;;;;;;;1.88;1.52;;;;;;;;;;4242766;28;20406;-58
2023/05/25 08:53:52;;;;;;;1.73;1.63;;;;;;;;;;4240534;28;20100;-58
2023/05/25 08:56:19;;;;;;;9.27;2.37;;;;;;;;;;4240145;28;20394;-58
2023/05/25 08:58:45;;;;;;;3.90;1.73;;;;;;;;;;4239240;28;20038;-58
2023/05/25 09:01:07;;;;;;;2.22;1.42;;;;;;;;;;4245847;28;20046;-58
2023/05/25 09:03:28;;;;;;;;;;;;;;;;;;4237094;28;20058;-59
2023/05/25 09:05:48;;;;;;;3.00;1.42;;;;;;;;;;4243239;28;20286;-58
2023/05/25 09:08:09;;;;;;;1.48;1.48;;;;;;;;;;4238550;28;20247;-59
2023/05/25 09:10:30;;;;;;;1.58;1.52;;;;;;;;;;4241346;28;20050;-58
2023/05/25 09:12:50;;;;;;;1.60;1.60;;;;;;;;;;4241627;28;20112;-59
2023/05/25 09:15:12;;;;;;;2.60;2.03;;;;;;;;;;4242455;28;20081;-58
2023/05/25 09:17:32;;;;;;;2.33;2.10;;;;;;;;;;4240473;28;20065;-58
2023/05/25 09:19:55;;;;;;;2.25;2.15;;;;;;;;;;4241643;28;20285;-58
2023/05/25 09:22:16;;;;;;;5.15;2.03;;;;;;;;;;4243459;28;20082;-59
2023/05/25 09:24:40;;;;;;;2.17;1.52;;;;;;;;;;4241727;28;20046;-59
2023/05/25 09:27:00;;;;;;;2.33;2.13;;;;;;;;;;4238287;28;20388;-58
2023/05/25 09:29:20;;;;;;;1.90;1.27;;;;;;;;;;4240362;28;20038;-59
2023/05/25 09:31:41;;;;;;;1.73;1.45;;;;;;;;;;4239789;27;20109;-58
2023/05/25 09:34:01;;;;;;;4.10;1.95;;;;;;;;;;4244702;28;20084;-58
2023/05/25 09:36:22;;;;;;;1.40;1.40;;;;;;;;;;4236918;28;20042;-58
2023/05/25 09:38:43;;;;;;;1.48;1.38;;;;;;;;;;4243807;28;20050;-59
2023/05/25 09:41:05;;;;;;;1.77;1.65;;;;;;;;;;4242716;28;20055;-59
2023/05/25 09:43:26;;;;;;;2.03;1.87;;;;;;;;;;4241466;28;20365;-58
2023/05/25 09:46:02;;;;;;;3.70;1.75;;;;;;;;;;4240505;28;20321;-58
2023/05/25 09:48:23;;;;;;;2.15;2.05;;;;;;;;;;4242827;28;20365;-58
2023/05/25 09:50:43;;;;;;;1.83;1.73;;;;;;;;;;4240593;28;20108;-58
2023/05/25 09:53:06;;;;;;;1.83;1.73;;;;;;;;;;4235795;28;20046;-58
2023/05/25 09:55:27;;;;;;;2.30;2.20;;;;;;;;;;4251262;28;20042;-58
2023/05/25 09:58:06;;;;;;;3.20;2.25;;;;;;;;;;4239597;28;20042;-58
2023/05/25 10:00:27;;;;;;;3.08;1.85;;;;;;;;;;4250619;28;20088;-58
2023/05/25 10:02:47;;;;;;;1.65;1.55;;;;;;;;;;4245631;28;20050;-59
2023/05/25 10:05:07;;;;;;;2.10;2.00;;;;;;;;;;4243764;28;20057;-58
2023/05/25 10:07:28;;;;;;;6.75;2.53;;;;;;;;;;4248213;28;20059;-58
2023/05/25 10:09:52;;;;;;;1.77;1.77;;;;;;;;;;4247032;28;20050;-58
2023/05/25 10:12:14;;;;;;;1.95;1.50;;;;;;;;;;4243320;28;20058;-58
2023/05/25 10:14:36;;;;;;;1.88;1.77;;;;;;;;;;4243627;28;20085;-58
2023/05/25 10:17:03;;;;;;;2.33;1.40;;;;;;;;;;4241537;28;20071;-58
2023/05/25 10:19:40;;;;;;;1.50;1.40;;;;;;;;;;4240524;28;20084;-58
2023/05/25 10:22:06;;;;;;;3.85;1.80;;;;;;;;;;4242189;28;20107;-58
2023/05/25 10:24:27;;;;;;;1.85;1.83;;;;;;;;;;4242369;28;20325;-58
2023/05/25 10:26:49;;;;;;;2.28;1.80;;;;;;;;;;4236771;28;20240;-57
2023/05/25 10:29:10;;;;;;;1.52;1.42;;;;;;;;;;4239035;28;20240;-57
2023/05/25 10:31:32;;;;;;;1.83;1.73;;;;;;;;;;4242556;28;20077;-58
2023/05/25 10:33:53;;;;;;;1.50;1.40;;;;;;;;;;4238863;28;20051;-59
2023/05/25 10:36:15;;;;;;;1.55;1.55;;;;;;;;;;4237290;28;20106;-59
2023/05/25 10:38:37;;;;;;;1.50;1.50;;;;;;;;;;4235413;28;20071;-57
2023/05/25 10:40:58;;;;;;;2.00;1.90;;;;;;;;;;4239203;28;20231;-58
2023/05/25 10:43:18;;;;;;;2.95;2.30;;;;;;;;;;4235161;28;20047;-59
2023/05/25 10:45:40;;;;;;;1.92;1.75;;;;;;;;;;4244749;28;20046;-58
2023/05/25 10:48:01;;;;;;;1.67;1.37;;;;;;;;;;4245442;28;20050;-58
2023/05/25 10:50:23;;;;;;;2.42;1.92;;;;;;;;;;4245434;28;20080;-58
2023/05/25 10:52:43;;;;;;;5.97;1.85;;;;;;;;;;4243753;28;20046;-58
2023/05/25 10:55:04;;;;;;;3.22;1.95;;;;;;;;;;4242654;28;20043;-58
2023/05/25 10:57:24;;;;;;;1.48;1.48;;;;;;;;;;4241846;28;20046;-57
2023/05/25 10:59:49;;;;;;;1.98;1.88;;;;;;;;;;4239534;28;20059;-59
2023/05/25 11:02:09;;;;;;;1.90;1.83;;;;;;;;;;4241667;28;20265;-58
2023/05/25 11:04:35;;;;;;;3.22;2.20;;;;;;;;;;4237318;28;20246;-58
2023/05/25 11:06:59;;;;;;;1.95;1.85;;;;;;;;;;4239543;28;20141;-58
2023/05/25 11:09:26;;;;;;;2.45;2.35;;;;;;;;;;4244076;28;20046;-58
2023/05/25 11:11:47;;;;;;;3.28;1.80;;;;;;;;;;4238739;28;20055;-58
2023/05/25 11:14:20;;;;;;;5.13;1.70;;;;;;;;;;4233032;28;20042;-58
2023/05/25 11:16:40;;;;;;;2.17;1.92;;;;;;;;;;4235748;28;20048;-58
2023/05/25 11:19:01;;;;;;;2.97;1.60;;;;;;;;;;4239989;28;20120;-58
2023/05/25 11:21:31;;;;;;;2.15;2.15;;;;;;;;;;4235208;28;20047;-59
2023/05/25 11:24:01;;;;;;;1.90;1.77;;;;;;;;;;4233636;28;20074;-59
2023/05/25 11:26:28;;;;;;;5.47;2.45;;;;;;;;;;4244656;28;20421;-59
2023/05/25 11:28:51;;;;;;;3.08;2.08;;;;;;;;;;4240992;28;20047;-58
2023/05/25 11:31:12;;;;;;;2.40;1.90;;;;;;;;;;4245122;28;20038;-58
2023/05/25 11:33:33;;;;;;;2.00;1.90;;;;;;;;;;4246930;28;20050;-59
2023/05/25 11:35:56;;;;;;;3.53;2.17;;;;;;;;;;4250456;28;20046;-58
2023/05/25 11:38:16;;;;;;;3.17;3.00;;;;;;;;;;4249478;28;20054;-58
2023/05/25 11:40:37;;;;;;;2.53;2.42;;;;;;;;;;4247975;27;20335;-58
2023/05/25 11:43:00;;;;;;;;;;;;;;;;;;4250457;28;20365;-58
2023/05/25 11:45:22;;;;;;;3.00;1.90;;;;;;;;;;4244882;28;19964;-58
2023/05/25 11:47:42;;;;;;;2.42;2.33;;;;;;;;;;4243533;28;20050;-59
2023/05/25 11:50:02;;;;;;;4.15;2.13;;;;;;;;;;4244711;28;20042;-59
2023/05/25 11:52:22;;;;;;;2.45;2.35;;;;;;;;;;4247715;28;20083;-59
2023/05/25 11:54:43;;;;;;;3.13;2.70;;;;;;;;;;4239007;28;20043;-58
2023/05/25 11:57:06;;;;;;;2.72;2.30;;;;;;;;;;4239102;28;20077;-58
2023/05/25 11:59:27;;;;;;;3.00;1.67;;;;;;;;;;4243892;28;20358;-59
2023/05/25 12:01:59;;;;;;;4.18;2.50;;;;;;;;;;4245111;28;20077;-59
2023/05/25 12:04:19;;;;;;;2.03;1.92;;;;;;;;;;4235831;28;20047;-59
2023/05/25 12:06:44;;;;;;;4.72;2.22;;;;;;;;;;4242500;28;20136;-59
2023/05/25 12:09:10;;;;;;;2.70;2.03;;;;;;;;;;4243413;28;20045;-59
2023/05/25 12:11:31;;;;;;;3.10;2.97;;;;;;;;;;4242952;28;20650;-59
2023/05/25 12:13:53;;;;;;;4.70;2.13;;;;;;;;;;4236332;28;20051;-59
2023/05/25 12:16:13;;;;;;;2.88;1.88;;;;;;;;;;4240492;28;20042;-58
2023/05/25 12:18:33;;;;;;;1.92;1.80;;;;;;;;;;4245617;28;20395;-58
2023/05/25 12:20:56;;;;;;;2.67;1.98;;;;;;;;;;4242967;28;20038;-59
2023/05/25 12:23:16;;;;;;;2.25;2.15;;;;;;;;;;4238520;28;20051;-58
2023/05/25 12:25:36;;;;;;;2.70;2.60;;;;;;;;;;4243307;28;20043;-58
2023/05/25 12:28:11;;;;;;;2.60;2.50;;;;;;;;;;4244164;28;20087;-58
2023/05/25 12:30:31;;;;;;;2.55;2.35;;;;;;;;;;4239069;28;20068;-58
2023/05/25 12:33:00;;;;;;;4.65;2.92;;;;;;;;;;4241684;28;20058;-62
2023/05/25 12:35:23;;;;;;;4.93;3.08;;;;;;;;;;4238710;28;20051;-63
2023/05/25 12:37:45;;;;;;;3.40;3.20;;;;;;;;;;4244507;28;20051;-64
2023/05/25 12:40:19;;;;;;;3.50;3.10;;;;;;;;;;4242374;27;20076;-64
2023/05/25 12:42:40;;;;;;;3.67;3.17;;;;;;;;;;4241389;28;20276;-62
2023/05/25 12:45:01;;;;;;;3.65;3.20;;;;;;;;;;4240864;28;20347;-63
2023/05/25 12:47:22;;;;;;;2.65;2.47;;;;;;;;;;4240413;28;20060;-63
2023/05/25 12:49:43;;;;;;;3.03;2.83;;;;;;;;;;4244715;28;20039;-63
2023/05/25 12:52:04;;;;;;;4.68;2.78;;;;;;;;;;4238826;28;20038;-63
2023/05/25 12:54:44;;;;;;;2.42;2.33;;;;;;;;;;4241967;28;20050;-63
2023/05/25 12:57:05;;;;;;;3.30;3.10;;;;;;;;;;4242117;28;20043;-63
2023/05/25 12:59:26;;;;;;;2.58;2.47;;;;;;;;;;4240966;28;20071;-63
2023/05/25 13:01:46;;;;;;;2.75;2.63;;;;;;;;;;4239205;28;20141;-64
2023/05/25 13:04:06;;;;;;;3.35;2.55;;;;;;;;;;4242727;28;20042;-63
2023/05/25 13:06:26;;;;;;;3.65;2.45;;;;;;;;;;4243513;28;20069;-63
2023/05/25 13:08:46;;;;;;;4.70;2.70;;;;;;;;;;4244481;28;20051;-63
2023/05/25 13:11:07;;;;;;;2.78;2.67;;;;;;;;;;4240315;28;20369;-63
2023/05/25 13:13:27;;;;;;;2.75;2.60;;;;;;;;;;4243987;28;20145;-63
2023/05/25 13:15:48;;;;;;;6.68;3.03;;;;;;;;;;4237418;28;20047;-63
2023/05/25 13:18:08;;;;;;;3.70;2.85;;;;;;;;;;4245693;28;20084;-63
2023/05/25 13:20:29;;;;;;;4.90;2.70;;;;;;;;;;4235635;28;20084;-63
2023/05/25 13:22:50;;;;;;;3.10;2.95;;;;;;;;;;4245062;28;20239;-63
2023/05/25 13:25:11;;;;;;;4.13;3.30;;;;;;;;;;4241055;28;20062;-63
2023/05/25 13:27:31;;;;;;;2.80;2.30;;;;;;;;;;4242756;28;20066;-63
2023/05/25 13:29:51;;;;;;;2.67;2.55;;;;;;;;;;4235509;28;20239;-63
2023/05/25 13:32:11;;;;;;;4.25;3.00;;;;;;;;;;4242836;28;20296;-63
2023/05/25 13:34:32;;;;;;;2.53;2.28;;;;;;;;;;4244211;28;20037;-63
2023/05/25 13:36:53;;;;;;;3.67;2.30;;;;;;;;;;4240338;28;20365;-63
2023/05/25 13:39:13;;;;;;;2.97;2.15;;;;;;;;;;4237771;28;20203;-63
2023/05/25 13:41:33;;;;;;;2.17;1.73;;;;;;;;;;4242034;27;20074;-63
2023/05/25 13:43:54;;;;;;;4.97;2.40;;;;;;;;;;4245076;28;20369;-63
2023/05/25 13:46:14;;;;;;;4.90;2.50;;;;;;;;;;4238483;28;20231;-63
2023/05/25 13:48:53;;;;;;;3.20;2.33;;;;;;;;;;4240409;28;20081;-63
2023/05/25 13:51:14;;;;;;;3.92;1.90;;;;;;;;;;4245027;28;20054;-63
2023/05/25 13:53:35;;;;;;;4.70;1.80;;;;;;;;;;4241101;28;20059;-63
2023/05/25 13:55:55;;;;;;;2.67;2.45;;;;;;;;;;4236067;28;20058;-63
2023/05/25 13:58:15;;;;;;;2.75;2.22;;;;;;;;;;4239988;28;20047;-63
2023/05/25 14:00:35;;;;;;;2.53;2.42;;;;;;;;;;4238410;28;20046;-63
2023/05/25 14:02:56;;;;;;;2.88;2.20;;;;;;;;;;4238976;28;20049;-63
2023/05/25 14:05:18;;;;;;;7.85;3.50;;;;;;;;;;4239098;28;20286;-62